Time;durP1;ratioP1;P1;durP2;ratioP2;P2;SDS_P1;SDS_P2;PMS_P1;PMS_P2;Temp;Humidity;BMP_temperature;BMP_pressure;BME280_temperature;BME280_humidity;BME280_pressure;Samples;Min_cycle;Max_cycle;Signal;HPM_P1;HPM_P2
2023/12/02 00:02:05;;;;;;;8.60;3.38;;;;;;;-1.74;100.00;100450.91;5049907;28;20055;-73
2023/12/02 00:04:31;;;;;;;8.00;3.00;;;;;;;-1.70;100.00;100446.66;5041921;28;20140;-72
2023/12/02 00:06:58;;;;;;;8.18;3.20;;;;;;;-1.63;100.00;100456.13;5046380;28;20044;-72
2023/12/02 00:09:24;;;;;;;8.07;3.17;;;;;;;-1.68;100.00;100460.38;5063027;28;20048;-72
2023/12/02 00:11:51;;;;;;;10.05;3.83;;;;;;;-1.83;100.00;100448.28;5069296;28;20529;-71
2023/12/02 00:14:18;;;;;;;6.32;2.55;;;;;;;-1.69;100.00;100456.09;5047543;28;20045;-72
2023/12/02 00:16:45;;;;;;;7.05;3.00;;;;;;;-1.73;100.00;100439.81;5053001;28;20397;-72
2023/12/02 00:19:11;;;;;;;8.10;3.60;;;;;;;-1.78;100.00;100464.56;5065122;28;20057;-72
2023/12/02 00:21:38;;;;;;;6.75;3.10;;;;;;;-1.87;100.00;100462.78;5057246;28;20061;-72
2023/12/02 00:24:05;;;;;;;6.47;2.70;;;;;;;-1.89;100.00;100456.78;5044034;28;20048;-72
2023/12/02 00:26:32;;;;;;;6.78;2.53;;;;;;;-1.82;100.00;100466.25;5059348;28;20045;-72
2023/12/02 00:28:59;;;;;;;7.80;3.13;;;;;;;-1.80;100.00;100466.28;5059983;28;20090;-71
2023/12/02 00:31:25;;;;;;;9.13;3.45;;;;;;;-1.87;100.00;100455.09;5069419;28;20048;-73
2023/12/02 00:33:53;;;;;;;7.88;2.97;;;;;;;-1.96;100.00;100445.59;5061011;28;20482;-71
2023/12/02 00:36:20;;;;;;;8.02;2.60;;;;;;;-1.82;100.00;100461.13;5046848;28;20041;-73
2023/12/02 00:38:46;;;;;;;7.10;2.70;;;;;;;-1.91;100.00;100450.78;5047059;28;20056;-71
2023/12/02 00:41:13;;;;;;;6.95;2.88;;;;;;;-1.97;100.00;100459.25;5068494;28;20041;-71
2023/12/02 00:43:40;;;;;;;6.72;2.85;;;;;;;-1.98;100.00;100444.72;5062674;28;20053;-72
2023/12/02 00:46:07;;;;;;;7.32;2.75;;;;;;;-2.03;100.00;100440.41;5048862;28;20087;-72
2023/12/02 00:48:34;;;;;;;8.10;3.38;;;;;;;-2.05;100.00;100447.22;5047549;28;20049;-71
2023/12/02 00:51:01;;;;;;;7.53;2.72;;;;;;;-2.10;100.00;100442.91;5065200;28;20060;-73
2023/12/02 00:53:27;;;;;;;8.88;3.30;;;;;;;-2.30;100.00;100423.91;5048290;28;20099;-72
2023/12/02 00:55:54;;;;;;;8.40;3.10;;;;;;;-2.19;100.00;100441.97;5044907;28;20048;-73
2023/12/02 00:58:21;;;;;;;6.32;2.65;;;;;;;-2.13;100.00;100436.88;5054807;28;20474;-71
2023/12/02 01:01:01;;;;;;;9.10;3.38;;;;;;;-2.25;100.00;100436.78;5063769;28;20055;-73
2023/12/02 01:03:27;;;;;;;8.82;3.05;;;;;;;-2.27;100.00;100436.75;5039703;28;20402;-72
2023/12/02 01:05:54;;;;;;;6.57;2.50;;;;;;;-2.13;100.00;100442.03;5054264;28;20049;-72
2023/12/02 01:08:21;;;;;;;8.02;2.75;;;;;;;-2.20;100.00;100435.97;5061200;28;20044;-72
2023/12/02 01:10:48;;;;;;;5.60;2.38;;;;;;;-2.24;100.00;100438.50;5072214;28;20428;-72
2023/12/02 01:13:14;;;;;;;10.63;3.47;;;;;;;-2.36;100.00;100422.13;5068939;28;20375;-72
2023/12/02 01:15:41;;;;;;;8.55;3.40;;;;;;;-2.38;100.00;100431.50;5054897;28;20408;-72
2023/12/02 01:18:08;;;;;;;9.88;4.05;;;;;;;-2.47;100.00;100431.41;5066342;28;20110;-72
2023/12/02 01:20:35;;;;;;;9.30;4.03;;;;;;;-2.68;100.00;100432.91;5056552;28;20053;-71
2023/12/02 01:23:01;;;;;;;6.20;2.60;;;;;;;-2.59;100.00;100419.31;5060425;28;20053;-72
2023/12/02 01:25:28;;;;;;;7.90;3.30;;;;;;;-2.68;100.00;100440.59;5066140;28;20052;-72
2023/12/02 01:27:54;;;;;;;7.88;2.80;;;;;;;-2.79;100.00;100439.59;5067061;28;20045;-72
2023/12/02 01:30:21;;;;;;;9.25;3.53;;;;;;;-2.82;100.00;100436.16;5066131;28;20055;-72
2023/12/02 01:32:48;;;;;;;7.82;2.83;;;;;;;-2.78;100.00;100432.78;5052192;28;20494;-72
2023/12/02 01:35:15;;;;;;;6.75;2.85;;;;;;;-2.76;100.00;100419.16;5053042;28;20045;-72
2023/12/02 01:37:42;;;;;;;7.90;3.08;;;;;;;-2.60;100.00;100427.00;5066056;28;20045;-72
2023/12/02 01:40:11;;;;;;;6.35;2.67;;;;;;;-2.79;100.00;100392.63;5071926;28;20510;-72
2023/12/02 01:42:38;;;;;;;7.15;2.58;;;;;;;-2.60;100.00;100430.44;5068385;28;20174;-72
2023/12/02 01:45:05;;;;;;;6.30;2.35;;;;;;;-2.56;100.00;100427.06;5059847;28;20044;-72
2023/12/02 01:47:32;;;;;;;7.13;2.80;;;;;;;-2.54;100.00;100424.50;5055040;28;20077;-72
2023/12/02 01:50:00;;;;;;;5.65;2.22;;;;;;;-2.58;100.00;100425.34;5051999;28;20041;-72
2023/12/02 01:52:27;;;;;;;5.28;2.10;;;;;;;-2.53;100.00;100436.50;5046569;28;20385;-73
2023/12/02 01:54:54;;;;;;;5.68;2.22;;;;;;;-2.57;100.00;100427.03;5051750;28;20064;-71
2023/12/02 01:57:21;;;;;;;5.95;2.08;;;;;;;-2.63;100.00;100434.66;5071743;28;20041;-72
2023/12/02 01:59:54;;;;;;;5.82;2.10;;;;;;;-2.48;100.00;100437.38;5051366;28;20473;-71
2023/12/02 02:02:22;;;;;;;4.32;1.75;;;;;;;-2.45;100.00;100436.56;5049382;28;20135;-71
2023/12/02 02:04:48;;;;;;;7.45;2.85;;;;;;;-2.69;100.00;100426.06;5052878;28;20416;-73
2023/12/02 02:07:17;;;;;;;8.18;3.20;;;;;;;-2.62;100.00;100444.06;5050161;28;20385;-72
2023/12/02 02:09:48;;;;;;;5.28;2.10;;;;;;;-2.58;100.00;100430.47;5057142;28;20048;-72
2023/12/02 02:12:15;;;;;;;6.47;2.38;;;;;;;-2.49;100.00;100444.22;5050480;28;20393;-71
2023/12/02 02:14:42;;;;;;;4.95;2.10;;;;;;;-2.65;100.00;100438.94;5047023;28;20095;-72
2023/12/02 02:17:09;;;;;;;7.45;2.88;;;;;;;-2.63;100.00;100442.34;5051888;28;20049;-71
2023/12/02 02:19:35;;;;;;;5.07;2.17;;;;;;;-2.57;100.00;100442.41;5050954;28;20048;-73
2023/12/02 02:22:03;;;;;;;6.90;2.67;;;;;;;-2.48;100.00;100439.94;5050797;28;20514;-71
2023/12/02 02:24:30;;;;;;;6.43;2.30;;;;;;;-2.39;100.00;100439.19;5048443;28;20080;-72
2023/12/02 02:26:57;;;;;;;5.50;2.15;;;;;;;-2.46;100.00;100450.22;5057237;28;20140;-72
2023/12/02 02:29:24;;;;;;;6.57;2.80;;;;;;;-2.57;100.00;100444.97;5050474;28;20053;-71
2023/12/02 02:31:51;;;;;;;7.80;2.92;;;;;;;-2.49;100.00;100439.09;5050478;28;20063;-71
2023/12/02 02:34:18;;;;;;;6.15;2.40;;;;;;;-2.38;100.00;100449.47;5050516;28;20052;-71
2023/12/02 02:36:45;;;;;;;6.30;2.30;;;;;;;-2.47;100.00;100443.41;5046552;28;20080;-71
2023/12/02 02:39:11;;;;;;;5.03;2.08;;;;;;;-2.42;100.00;100436.63;5050217;28;20059;-71
2023/12/02 02:41:39;;;;;;;5.70;2.05;;;;;;;-2.48;100.00;100437.38;5050489;28;20056;-72
2023/12/02 02:44:05;;;;;;;5.43;2.10;;;;;;;-2.44;100.00;100453.66;5048649;28;20908;-71
2023/12/02 02:46:32;;;;;;;4.80;1.95;;;;;;;-2.46;100.00;100445.09;5053481;28;20057;-71
2023/12/02 02:48:59;;;;;;;5.97;2.00;;;;;;;-2.46;100.00;100430.59;5049660;28;20076;-71
2023/12/02 02:51:26;;;;;;;6.93;2.58;;;;;;;-2.38;100.00;100444.34;5049846;28;20076;-71
2023/12/02 02:53:53;;;;;;;3.38;1.83;;;;;;;-2.35;100.00;100439.25;5040109;28;20623;-72
2023/12/02 02:56:20;;;;;;;5.72;2.00;;;;;;;-2.37;100.00;100438.38;5049352;28;20080;-71
2023/12/02 02:58:47;;;;;;;5.35;1.80;;;;;;;-2.43;100.00;100443.41;5049006;28;20049;-71
2023/12/02 03:01:13;;;;;;;4.88;2.05;;;;;;;-2.45;100.00;100450.25;5049465;28;20053;-72
2023/12/02 03:03:40;;;;;;;5.90;2.50;;;;;;;-2.49;100.00;100453.63;5047895;28;20049;-72
2023/12/02 03:06:07;;;;;;;4.75;1.92;;;;;;;-2.55;100.00;100457.00;5050477;28;20052;-71
2023/12/02 03:08:35;;;;;;;9.25;2.97;;;;;;;-2.53;100.00;100447.59;5049361;28;20124;-72
2023/12/02 03:11:02;;;;;;;5.38;2.42;;;;;;;-2.65;100.00;100447.47;5048789;28;20478;-72
2023/12/02 03:13:29;;;;;;;3.20;1.70;;;;;;;-2.70;100.00;100446.56;5046102;28;20413;-71
2023/12/02 03:15:55;;;;;;;6.85;2.30;;;;;;;-2.73;100.00;100446.50;5039491;28;20045;-72
2023/12/02 03:18:22;;;;;;;4.57;1.83;;;;;;;-2.74;100.00;100452.50;5049008;28;20058;-71
2023/12/02 03:20:49;;;;;;;4.07;2.00;;;;;;;-2.77;100.00;100440.47;5045780;28;20182;-72
2023/12/02 03:23:16;;;;;;;5.20;2.00;;;;;;;-2.71;100.00;100448.25;5043122;28;20044;-72
2023/12/02 03:25:42;;;;;;;8.52;2.80;;;;;;;-2.96;100.00;100456.47;5044959;28;20044;-71
2023/12/02 03:28:10;;;;;;;5.35;2.20;;;;;;;-3.03;100.00;100458.06;5049512;28;20048;-72
2023/12/02 03:30:37;;;;;;;6.72;2.75;;;;;;;-3.13;100.00;100435.78;5047292;28;20466;-72
2023/12/02 03:33:03;;;;;;;4.82;2.20;;;;;;;-3.00;100.00;100444.47;5054629;28;20500;-72
2023/12/02 03:35:30;;;;;;;6.88;2.50;;;;;;;-3.04;100.00;100445.28;5045350;28;20056;-73
2023/12/02 03:37:57;;;;;;;6.72;2.78;;;;;;;-3.09;100.00;100430.69;5058966;28;20099;-71
2023/12/02 03:40:23;;;;;;;7.78;2.75;;;;;;;-3.15;100.00;100442.53;5069059;28;20071;-73
2023/12/02 03:42:50;;;;;;;6.78;2.30;;;;;;;-3.13;100.00;100446.88;5069625;28;20517;-73
2023/12/02 03:45:16;;;;;;;7.25;2.80;;;;;;;-3.18;100.00;100451.06;5062379;28;20040;-72
2023/12/02 03:47:43;;;;;;;6.68;2.58;;;;;;;-3.15;100.00;100453.66;5068300;28;20052;-71
2023/12/02 03:50:10;;;;;;;6.95;2.60;;;;;;;-3.46;100.00;100414.81;5036961;28;20124;-72
2023/12/02 03:52:37;;;;;;;6.30;2.35;;;;;;;-3.28;100.00;100451.75;5044048;28;20051;-72
2023/12/02 03:55:04;;;;;;;7.50;3.05;;;;;;;-3.36;100.00;100441.44;5050229;28;20053;-73
2023/12/02 03:57:31;;;;;;;5.63;2.20;;;;;;;-3.41;100.00;100437.94;5040344;28;20064;-73
2023/12/02 03:59:58;;;;;;;7.90;2.80;;;;;;;-3.53;100.00;100445.44;5039242;28;20408;-72
2023/12/02 04:02:26;;;;;;;7.00;2.60;;;;;;;-3.52;100.00;100442.03;5069845;28;20059;-72
2023/12/02 04:04:52;;;;;;;6.43;2.50;;;;;;;-3.55;100.00;100436.88;5055508;28;20140;-72
2023/12/02 04:07:19;;;;;;;9.57;3.50;;;;;;;-3.47;100.00;100440.38;5049883;28;20394;-72
2023/12/02 04:09:46;;;;;;;6.00;2.50;;;;;;;-3.57;100.00;100431.72;5061654;28;20078;-72
2023/12/02 04:12:13;;;;;;;6.95;2.63;;;;;;;-3.57;100.00;100431.72;5060574;28;20479;-72
2023/12/02 04:14:40;;;;;;;7.13;2.80;;;;;;;-3.50;100.00;100428.41;5053673;28;20040;-71
2023/12/02 04:17:08;;;;;;;6.05;2.30;;;;;;;-3.39;100.00;100443.94;5063004;28;20467;-73
2023/12/02 04:19:34;;;;;;;7.60;2.50;;;;;;;-3.44;100.00;100440.44;5066911;28;20054;-71
2023/12/02 04:22:01;;;;;;;7.85;3.17;;;;;;;-3.53;100.00;100437.75;5055660;28;20053;-72
2023/12/02 04:24:28;;;;;;;7.00;2.90;;;;;;;-3.57;100.00;100424.06;5057361;28;20675;-73
2023/12/02 04:26:55;;;;;;;5.15;2.00;;;;;;;-3.41;100.00;100434.53;5060268;28;20045;-72
2023/12/02 04:29:22;;;;;;;6.53;2.35;;;;;;;-3.36;100.00;100430.34;5053259;28;20098;-72
2023/12/02 04:31:48;;;;;;;6.43;2.35;;;;;;;-3.47;100.00;100422.47;5048707;28;20411;-72
2023/12/02 04:34:15;;;;;;;5.25;1.92;;;;;;;-3.28;100.00;100434.69;5047328;28;20048;-72
2023/12/02 04:36:43;;;;;;;4.70;2.00;;;;;;;-3.30;100.00;100421.00;5048754;28;20052;-72
2023/12/02 04:39:11;;;;;;;8.27;2.75;;;;;;;-3.33;100.00;100427.78;5053020;28;20434;-72
2023/12/02 04:41:38;;;;;;;4.53;2.10;;;;;;;-3.30;100.00;100436.38;5048095;28;20132;-72
2023/12/02 04:44:05;;;;;;;5.07;2.05;;;;;;;-3.33;100.00;100444.03;5048869;28;20487;-72
2023/12/02 04:46:32;;;;;;;5.25;2.00;;;;;;;-3.34;100.00;100434.63;5053504;28;20482;-72
2023/12/02 04:48:59;;;;;;;3.78;1.77;;;;;;;-3.33;100.00;100446.59;5052816;28;20471;-72
2023/12/02 04:51:26;;;;;;;5.10;2.13;;;;;;;-3.32;100.00;100437.22;5052943;28;20057;-72
2023/12/02 04:53:52;;;;;;;6.85;3.08;;;;;;;-3.51;100.00;100436.06;5051226;28;20045;-72
2023/12/02 04:56:19;;;;;;;4.50;2.17;;;;;;;-3.52;100.00;100429.25;5051689;28;20140;-72
2023/12/02 04:58:46;;;;;;;6.80;2.60;;;;;;;-3.57;100.00;100439.41;5052188;28;20682;-72
2023/12/02 05:01:13;;;;;;;5.03;2.40;;;;;;;-3.67;100.00;100437.53;5052448;28;20044;-72
2023/12/02 05:03:40;;;;;;;5.32;2.05;;;;;;;-3.56;100.00;100446.25;5036676;28;20045;-72
2023/12/02 05:06:12;;;;;;;5.75;2.30;;;;;;;-3.51;100.00;100443.75;5039011;28;20510;-72
2023/12/02 05:08:39;;;;;;;5.30;2.10;;;;;;;-3.46;100.00;100430.19;5042989;28;20044;-72
2023/12/02 05:11:07;;;;;;;4.82;1.90;;;;;;;-3.37;100.00;100438.84;5052202;28;20048;-72
2023/12/02 05:13:33;;;;;;;4.93;1.88;;;;;;;-3.47;100.00;100420.78;5047795;28;20048;-72
2023/12/02 05:16:00;;;;;;;5.57;2.13;;;;;;;-3.60;100.00;100418.88;5051634;28;20713;-72
2023/12/02 05:18:26;;;;;;;7.13;2.30;;;;;;;-3.37;100.00;100441.41;5047203;28;20048;-72
2023/12/02 05:20:53;;;;;;;7.85;2.70;;;;;;;-3.58;100.00;100430.00;5051777;28;20048;-72
2023/12/02 05:23:20;;;;;;;6.53;2.58;;;;;;;-3.53;100.00;100448.00;5055707;28;20072;-72
2023/12/02 05:25:46;;;;;;;5.85;2.08;;;;;;;-3.44;100.00;100446.41;5058529;28;20048;-73
2023/12/02 05:28:13;;;;;;;4.97;2.33;;;;;;;-3.42;100.00;100432.78;5039628;28;20095;-72
2023/12/02 05:30:40;;;;;;;6.57;1.88;;;;;;;-3.41;100.00;100432.81;5051282;28;20052;-72
2023/12/02 05:33:07;;;;;;;9.15;2.60;;;;;;;-3.47;100.00;100445.50;5043261;28;20114;-72
2023/12/02 05:35:34;;;;;;;6.45;2.28;;;;;;;-3.50;100.00;100441.22;5055993;28;20049;-72
2023/12/02 05:38:00;;;;;;;6.47;2.30;;;;;;;-3.58;100.00;100439.38;5054102;28;20053;-71
2023/12/02 05:40:27;;;;;;;4.93;2.25;;;;;;;-3.62;100.00;100443.59;5052110;28;20142;-72
2023/12/02 05:42:54;;;;;;;5.05;2.00;;;;;;;-3.65;100.00;100423.06;5047444;28;20041;-72
2023/12/02 05:45:20;;;;;;;5.38;2.35;;;;;;;-3.59;100.00;100423.16;5044012;28;20514;-72
2023/12/02 05:47:47;;;;;;;4.22;1.90;;;;;;;-3.58;100.00;100426.59;5038574;28;20105;-73
2023/12/02 05:50:14;;;;;;;4.55;1.75;;;;;;;-3.68;100.00;100429.00;5050689;28;20053;-72
2023/12/02 05:52:41;;;;;;;4.82;2.08;;;;;;;-3.60;100.00;100431.66;5065705;28;20053;-72
2023/12/02 05:55:07;;;;;;;6.25;2.10;;;;;;;-3.63;100.00;100416.25;5043134;28;20049;-72
2023/12/02 05:57:36;;;;;;;5.43;2.25;;;;;;;-3.59;100.00;100429.97;5071272;28;20094;-73
2023/12/02 06:00:04;;;;;;;4.50;1.90;;;;;;;-3.57;100.00;100425.75;5067837;28;20106;-72
2023/12/02 06:02:30;;;;;;;4.88;2.10;;;;;;;-3.54;100.00;100420.66;5061341;28;20482;-72
2023/12/02 06:04:57;;;;;;;6.72;2.58;;;;;;;-3.59;100.00;100432.53;5039091;28;20049;-72
2023/12/02 06:07:24;;;;;;;4.95;2.20;;;;;;;-3.58;100.00;100422.31;5062591;28;20471;-73
2023/12/02 06:09:50;;;;;;;6.50;2.30;;;;;;;-3.63;100.00;100440.19;5060406;28;20045;-72
2023/12/02 06:12:17;;;;;;;6.85;2.20;;;;;;;-3.62;100.00;100428.22;5043098;28;20050;-72
2023/12/02 06:14:44;;;;;;;8.48;2.90;;;;;;;-3.66;100.00;100423.91;5056399;28;20137;-72
2023/12/02 06:17:10;;;;;;;4.38;1.80;;;;;;;-3.58;100.00;100429.13;5051779;28;20476;-72
2023/12/02 06:19:37;;;;;;;4.70;1.90;;;;;;;-3.71;100.00;100428.09;5063294;28;20482;-72
2023/12/02 06:22:03;;;;;;;5.93;2.28;;;;;;;-3.66;100.00;100426.47;5057727;28;20095;-72
2023/12/02 06:24:30;;;;;;;6.10;2.40;;;;;;;-3.76;100.00;100428.00;5049984;28;20486;-72
2023/12/02 06:26:57;;;;;;;6.13;2.28;;;;;;;-3.84;100.00;100412.56;5065619;28;20047;-72
2023/12/02 06:29:24;;;;;;;4.45;1.90;;;;;;;-3.63;100.00;100429.94;5052438;28;20063;-72
2023/12/02 06:31:51;;;;;;;3.75;1.80;;;;;;;-3.65;100.00;100418.81;5051177;28;20052;-71
2023/12/02 06:34:18;;;;;;;4.82;1.88;;;;;;;-3.54;100.00;100418.09;5048130;28;20049;-72
2023/12/02 06:36:44;;;;;;;5.15;2.00;;;;;;;-3.62;100.00;100429.09;5051583;28;20095;-72
2023/12/02 06:39:14;;;;;;;5.05;1.90;;;;;;;-3.68;100.00;100417.91;5049815;28;20061;-72
2023/12/02 06:41:41;;;;;;;4.55;1.90;;;;;;;-3.76;100.00;100394.75;5049307;28;20426;-72
2023/12/02 06:44:08;;;;;;;6.05;2.20;;;;;;;-3.65;100.00;100433.28;5046880;28;20532;-71
2023/12/02 06:46:35;;;;;;;5.65;2.08;;;;;;;-3.64;100.00;100428.22;5049596;28;20052;-73
2023/12/02 06:49:02;;;;;;;6.70;2.42;;;;;;;-3.56;100.00;100428.34;5050020;28;20037;-73
2023/12/02 06:51:29;;;;;;;7.47;2.72;;;;;;;-3.67;100.00;100440.09;5047173;28;20106;-73
2023/12/02 06:53:59;;;;;;;7.22;2.78;;;;;;;-3.78;100.00;100429.69;5049985;28;20049;-71
2023/12/02 06:56:26;;;;;;;4.50;1.75;;;;;;;-3.67;100.00;100434.97;5049303;28;20060;-72
2023/12/02 06:58:53;;;;;;;5.13;2.08;;;;;;;-3.59;100.00;100417.16;5050372;28;20135;-71
2023/12/02 07:01:27;;;;;;;5.68;2.00;;;;;;;-3.48;100.00;100434.41;5048188;28;20049;-71
2023/12/02 07:03:54;;;;;;;5.32;1.90;;;;;;;-3.49;100.00;100431.84;5031883;28;20048;-73
2023/12/02 07:06:21;;;;;;;6.60;2.05;;;;;;;-3.54;100.00;100429.22;5053815;28;20091;-73
2023/12/02 07:08:49;;;;;;;4.72;2.22;;;;;;;-3.58;100.00;100422.31;5053458;28;20138;-72
2023/12/02 07:11:17;;;;;;;3.60;1.60;;;;;;;-3.51;100.00;100434.38;5048796;28;20434;-72
2023/12/02 07:13:44;;;;;;;5.93;2.30;;;;;;;-3.50;100.00;100432.69;5048716;28;20053;-72
2023/12/02 07:16:11;;;;;;;5.32;1.90;;;;;;;-3.55;100.00;100421.53;5054775;28;20518;-71
2023/12/02 07:18:39;;;;;;;4.90;1.95;;;;;;;-3.43;100.00;100424.25;5043222;28;20051;-71
2023/12/02 07:21:07;;;;;;;4.65;1.90;;;;;;;-3.41;100.00;100420.00;5047937;28;20102;-71
2023/12/02 07:23:34;;;;;;;7.65;2.42;;;;;;;-3.50;100.00;100425.84;5052273;28;20060;-71
2023/12/02 07:26:01;;;;;;;5.47;2.28;;;;;;;-3.67;100.00;100420.47;5058752;28;20071;-72
2023/12/02 07:28:27;;;;;;;5.20;2.15;;;;;;;-3.68;100.00;100423.88;5039081;28;20131;-72
2023/12/02 07:30:55;;;;;;;6.82;2.45;;;;;;;-3.74;100.00;100422.94;5050132;28;20131;-71
2023/12/02 07:33:22;;;;;;;8.30;2.95;;;;;;;-3.94;100.00;100425.19;5043597;28;20486;-71
2023/12/02 07:35:49;;;;;;;8.30;3.30;;;;;;;-3.93;100.00;100426.88;5053986;28;20216;-71
2023/12/02 07:38:15;;;;;;;11.48;3.75;;;;;;;-4.05;100.00;100414.78;5048636;28;20043;-71
2023/12/02 07:40:42;;;;;;;6.13;2.50;;;;;;;-3.98;100.00;100431.94;5048198;28;20059;-72
2023/12/02 07:43:09;;;;;;;8.30;2.55;;;;;;;-3.96;100.00;100431.97;5040357;28;20466;-72
2023/12/02 07:45:36;;;;;;;3.92;1.85;;;;;;;-4.02;100.00;100423.34;5049010;28;20048;-72
2023/12/02 07:48:04;;;;;;;6.28;2.63;;;;;;;-4.08;100.00;100418.13;5041469;28;20532;-73
2023/12/02 07:50:31;;;;;;;6.47;2.58;;;;;;;-4.14;100.00;100414.59;5047873;28;20100;-71
2023/12/02 07:52:58;;;;;;;5.43;2.03;;;;;;;-3.95;100.00;100429.41;5049060;28;20049;-71
2023/12/02 07:55:25;;;;;;;4.78;2.05;;;;;;;-3.82;100.00;100427.94;5053570;28;20493;-72
2023/12/02 07:57:52;;;;;;;6.82;2.88;;;;;;;-4.03;100.00;100420.78;5046728;28;20048;-72
2023/12/02 08:00:19;;;;;;;6.35;2.42;;;;;;;-4.20;100.00;100430.69;5037338;28;20068;-71
2023/12/02 08:02:45;;;;;;;5.75;2.33;;;;;;;-4.23;100.00;100423.00;5046714;28;20053;-72
2023/12/02 08:05:12;;;;;;;6.38;2.55;;;;;;;-3.98;100.00;100438.72;5037007;28;20045;-72
2023/12/02 08:07:41;;;;;;;7.15;2.55;;;;;;;-3.98;100.00;100433.63;5044835;28;20068;-71
2023/12/02 08:10:09;;;;;;;5.32;2.00;;;;;;;-3.87;100.00;100434.66;5042771;28;20147;-71
2023/12/02 08:12:36;;;;;;;7.07;2.50;;;;;;;-4.02;100.00;100428.47;5042135;28;20053;-72
2023/12/02 08:15:04;;;;;;;9.77;4.47;;;;;;;-4.35;100.00;100431.28;5046017;28;20045;-73
2023/12/02 08:17:31;;;;;;;8.20;3.28;;;;;;;-4.12;100.00;100439.38;5045528;28;20447;-72
2023/12/02 08:19:58;;;;;;;8.65;3.13;;;;;;;-4.08;100.00;100432.63;5045055;28;20140;-72
2023/12/02 08:22:24;;;;;;;10.48;3.30;;;;;;;-3.97;100.00;100430.22;5047775;28;20045;-72
2023/12/02 08:24:52;;;;;;;8.88;3.17;;;;;;;-3.79;100.00;100442.47;5050091;28;20041;-72
2023/12/02 08:27:19;;;;;;;8.00;2.85;;;;;;;-3.89;100.00;100424.41;5047058;28;20052;-72
2023/12/02 08:29:45;;;;;;;7.53;3.03;;;;;;;-3.76;100.00;100443.38;5048317;28;20080;-72
2023/12/02 08:32:12;;;;;;;8.18;2.80;;;;;;;-3.67;100.00;100446.06;5041395;28;20356;-72
2023/12/02 08:34:39;;;;;;;12.30;3.40;;;;;;;-3.97;100.00;100407.22;5052225;28;20415;-72
2023/12/02 08:37:06;;;;;;;6.93;2.72;;;;;;;-3.76;100.00;100445.94;5047117;28;20037;-72
2023/12/02 08:39:33;;;;;;;9.38;4.47;;;;;;;-3.77;100.00;100458.69;5046346;28;20053;-72
2023/12/02 08:42:00;;;;;;;11.82;4.40;;;;;;;-3.97;100.00;100446.44;5047097;28;20049;-72
2023/12/02 08:44:27;;;;;;;10.30;3.58;;;;;;;-3.72;100.00;100457.94;5045974;28;20052;-71
2023/12/02 08:46:54;;;;;;;8.57;3.05;;;;;;;-3.40;100.00;100456.72;5048060;28;20052;-71
2023/12/02 08:49:20;;;;;;;11.25;3.65;;;;;;;-2.96;100.00;100452.19;5034549;28;20045;-72
2023/12/02 08:51:47;;;;;;;11.35;3.72;;;;;;;-2.65;100.00;100446.63;5042638;28;20080;-72
2023/12/02 08:54:14;;;;;;;8.73;3.42;;;;;;;-2.44;100.00;100443.41;5043318;28;20049;-72
2023/12/02 08:56:41;;;;;;;8.32;3.25;;;;;;;-2.66;100.00;100445.72;5046781;28;20550;-71
2023/12/02 08:59:08;;;;;;;7.95;3.30;;;;;;;-2.89;100.00;100442.91;5037198;28;20041;-72
2023/12/02 09:01:34;;;;;;;8.25;2.65;;;;;;;-2.99;100.00;100453.84;5032689;28;20094;-72
2023/12/02 09:04:01;;;;;;;5.28;2.17;;;;;;;-2.98;100.00;100445.34;5040451;28;20080;-71
2023/12/02 09:06:28;;;;;;;7.40;2.55;;;;;;;-2.98;100.00;100453.88;5039833;28;20052;-72
2023/12/02 09:08:55;;;;;;;5.32;2.20;;;;;;;-2.91;100.00;100458.25;5045333;28;20384;-72
2023/12/02 09:11:22;;;;;;;4.28;1.80;;;;;;;-3.04;100.00;100428.19;5045634;28;21237;-71
2023/12/02 09:13:49;;;;;;;4.57;1.75;;;;;;;-2.89;100.00;100451.44;5042022;28;20427;-72
2023/12/02 09:16:23;;;;;;;7.07;2.28;;;;;;;-2.80;100.00;100453.25;5051357;28;20049;-71
2023/12/02 09:18:50;;;;;;;2.85;1.50;;;;;;;-2.75;100.00;100450.75;5049854;28;20065;-71
2023/12/02 09:21:20;;;;;;;6.88;1.90;;;;;;;-2.72;100.00;100454.22;5050968;28;20052;-71
2023/12/02 09:23:48;;;;;;;3.85;1.80;;;;;;;-2.59;100.00;100451.78;5049967;28;20045;-71
2023/12/02 09:26:29;;;;;;;3.22;1.60;;;;;;;-2.45;100.00;100450.25;5038109;28;20410;-71
2023/12/02 09:28:55;;;;;;;3.03;1.48;;;;;;;-2.42;100.00;100446.88;5050839;28;20041;-71
2023/12/02 09:31:24;;;;;;;4.32;1.70;;;;;;;-2.34;100.00;100447.78;5040938;28;20399;-71
2023/12/02 09:34:02;;;;;;;4.47;1.75;;;;;;;-2.19;100.00;100453.09;5047501;28;20041;-73
2023/12/02 09:36:34;;;;;;;14.02;2.67;;;;;;;-2.31;100.00;100463.22;5050853;28;20068;-72
2023/12/02 09:39:09;;;;;;;7.82;2.80;;;;;;;-2.40;100.00;100460.56;5050492;28;20064;-72
2023/12/02 09:41:45;;;;;;;5.63;2.08;;;;;;;-2.35;100.00;100459.75;5043157;28;20053;-72
2023/12/02 09:44:27;;;;;;;5.18;1.95;;;;;;;-2.41;100.00;100469.94;5049198;28;20045;-72
2023/12/02 09:47:08;;;;;;;10.07;3.20;;;;;;;-2.44;100.00;100461.34;5047430;28;20083;-72
2023/12/02 09:49:53;;;;;;;8.75;3.20;;;;;;;-2.49;100.00;100464.72;5049858;28;20080;-72
2023/12/02 09:52:48;;;;;;;9.73;3.35;;;;;;;-2.41;100.00;100459.69;5049648;28;20048;-72
2023/12/02 09:55:33;;;;;;;8.93;3.20;;;;;;;-2.49;100.00;100471.56;5033684;28;20553;-72
2023/12/02 09:58:19;;;;;;;7.07;2.75;;;;;;;-2.36;100.00;100467.44;5036234;28;20481;-72
2023/12/02 10:00:52;;;;;;;9.90;3.72;;;;;;;-2.30;100.00;100464.94;5049095;28;20144;-72
2023/12/02 10:03:38;;;;;;;;;;;;;;;-2.34;100.00;100466.63;5043549;28;20106;-72
2023/12/02 10:06:32;;;;;;;13.23;5.07;;;;;;;-2.34;100.00;100474.31;5054822;28;20308;-72
2023/12/02 10:09:18;;;;;;;11.30;4.00;;;;;;;-2.11;100.00;100465.97;5044461;28;20500;-72
2023/12/02 10:12:24;;;;;;;8.60;2.85;;;;;;;-1.86;100.00;100458.50;5048388;28;20070;-72
2023/12/02 10:15:00;;;;;;;7.57;2.90;;;;;;;-1.78;100.00;100462.00;5015367;28;20474;-72
2023/12/02 10:17:34;;;;;;;7.43;2.65;;;;;;;-1.72;100.00;100464.63;5041008;28;20049;-72
2023/12/02 10:20:11;;;;;;;7.97;2.72;;;;;;;-1.66;100.00;100468.97;5047964;28;20140;-72
2023/12/02 10:22:48;;;;;;;10.55;4.07;;;;;;;-1.61;100.00;100460.44;5058659;28;20442;-72
2023/12/02 10:25:30;;;;;;;9.68;3.22;;;;;;;-1.74;100.00;100464.59;5047394;28;20163;-72
2023/12/02 10:28:20;;;;;;;8.60;2.83;;;;;;;-1.86;100.00;100461.97;5046651;28;20049;-71
2023/12/02 10:30:50;;;;;;;7.93;3.33;;;;;;;-2.07;100.00;100462.63;5043779;28;20061;-71
2023/12/02 10:33:43;;;;;;;8.65;3.03;;;;;;;-2.12;100.00;100462.56;5044981;28;20053;-71
2023/12/02 10:36:11;;;;;;;9.52;4.07;;;;;;;-2.05;100.00;100467.72;5045144;28;20055;-73
2023/12/02 10:39:02;;;;;;;9.15;2.90;;;;;;;-2.23;100.00;100464.16;5045382;28;20045;-72
2023/12/02 10:42:00;;;;;;;5.93;2.20;;;;;;;-1.99;100.00;100460.97;5036387;28;20053;-71
2023/12/02 10:44:32;;;;;;;8.52;3.40;;;;;;;-2.01;100.00;100442.13;5048158;28;20508;-72
2023/12/02 10:47:00;;;;;;;7.38;2.70;;;;;;;-1.78;100.00;100467.16;5049406;28;20406;-71
2023/12/02 10:49:28;;;;;;;6.63;2.38;;;;;;;-1.73;100.00;100450.94;5043316;28;20403;-71
2023/12/02 10:52:02;;;;;;;5.07;1.98;;;;;;;-1.58;100.00;100445.03;5046548;28;20083;-71
2023/12/02 10:54:36;;;;;;;7.88;2.58;;;;;;;-1.58;100.00;100452.75;5041658;28;20394;-72
2023/12/02 10:57:07;;;;;;;8.95;2.78;;;;;;;-1.52;100.00;100449.38;5035727;28;20471;-72
2023/12/02 10:59:47;;;;;;;7.47;2.72;;;;;;;-1.48;100.00;100450.25;5030678;28;20403;-72
2023/12/02 11:02:28;;;;;;;5.53;2.13;;;;;;;-1.34;100.00;100446.94;5043240;28;20069;-72
2023/12/02 11:05:21;;;;;;;8.10;3.25;;;;;;;-1.34;100.00;100458.91;5047075;28;20076;-72
2023/12/02 11:07:54;;;;;;;7.95;3.45;;;;;;;-1.50;100.00;100449.41;5041322;28;20422;-72
2023/12/02 11:10:34;;;;;;;8.07;3.05;;;;;;;-1.24;100.00;100452.13;5048206;28;20049;-72
2023/12/02 11:13:04;;;;;;;6.97;2.78;;;;;;;-1.09;100.00;100454.78;5041047;28;20060;-72
2023/12/02 11:15:46;;;;;;;8.20;3.53;;;;;;;-1.21;100.00;100455.56;5048592;28;20470;-71
2023/12/02 11:18:33;;;;;;;7.10;3.03;;;;;;;-1.28;100.00;100452.97;5049328;28;20053;-72
2023/12/02 11:21:32;;;;;;;7.72;2.97;;;;;;;-1.13;100.00;100447.91;5038105;28;20049;-72
2023/12/02 11:24:11;;;;;;;7.53;2.90;;;;;;;-1.11;100.00;100438.50;5042898;28;20344;-71
2023/12/02 11:27:16;;;;;;;7.70;2.83;;;;;;;-0.95;100.00;100436.88;5041380;28;20056;-72